Pioche, Nevada Weather observations

Data are for observation ending at time listed.
 Day   Time    Ave.   Ave.  Ave.  Vector   Max.   Stn.    Total    Solar   Ave.  
  of    of     Air    Rel.  Wind   Wind    Wind   Baro.  Precip.   Rad.    Soil  
Year   Day     Temp.  Hum.  Speed  Dir.    Gust   Pres.                    Temp. 
2026   (PST)    F      %     mph   deg.    mph     mb.     in.     W/m2     F   
------------------------------------------------------------------------------
 129    0:10   57.8    25    2.4   261      8.7   819.6    0.00       0    64.3
 129    0:20   63.2    20    7.0   272     10.8   819.6    0.00       0    64.2
 129    0:30   63.7    20    6.2   276     10.8   819.6    0.00       0    64.2
 129    0:40   63.8    20    7.8   270     11.8   819.5    0.00       0    64.1
 129    0:50   63.8    20    6.8   272      9.9   819.5    0.00       0    64.1
 129    1:00   63.7    20    7.1   275     11.1   819.5    0.00       0    64.1
 129    1:10   63.2    20    7.1   274     12.2   819.6    0.00       0    64.1
 129    1:20   63.2    20    7.9   272     12.2   819.6    0.00       0    64.0
 129    1:30   63.0    20    7.4   270     10.8   819.7    0.00       0    64.0
 129    1:40   63.0    20    7.8   272     10.9   819.7    0.00       0    64.0
 129    1:50   62.8    21    8.1   269     12.4   819.7    0.00       0    64.0
 129    2:00   62.9    20    8.3   270     11.9   819.7    0.00       0    63.9
 129    2:10   63.0    20    7.9   270     11.7   819.8    0.00       0    63.9
 129    2:20   63.1    20    7.6   267     13.0   819.8    0.00       0    63.8
 129    2:30   63.1    20    7.6   269     10.6   819.8    0.00       0    63.8
 129    2:40   62.9    20    7.2   268     11.0   819.7    0.00       0    63.8
 129    2:50   63.1    20    8.2   269     12.8   819.8    0.00       0    63.8
 129    3:00   62.8    21    8.2   270     12.2   819.7    0.00       0    63.7
 129    3:10   62.5    21    7.6   272     10.6   819.8    0.00       0    63.7
 129    3:20   62.4    21    8.4   270     11.8   819.8    0.00       0    63.7
 129    3:30   62.5    21    8.2   269     11.4   819.9    0.00       0    63.6
 129    3:40   62.3    21    8.2   270     11.7   819.8    0.00       0    63.6
 129    3:50   62.1    22    8.0   270     13.7   819.9    0.00       0    63.6
 129    4:00   61.6    22    7.2   268     10.4   819.9    0.00       0    63.6
 129    4:10   61.4    22    7.4   268     11.3   820.0    0.00       0    63.5
 129    4:20   61.3    22    6.8   268     10.3   820.0    0.00       0    63.5
 129    4:30   61.4    22    5.5   266      9.7   820.2    0.00       0    63.5
 129    4:40   61.4    22    4.0   272      6.8   820.3    0.00       4    63.5
 129    4:50   59.9    24    1.4   281      4.6   820.4    0.00      10    63.4
 129    5:00   58.5    26    3.1   266      6.9   820.5    0.00      14    63.4
 129    5:10   60.3    24    4.2   270      7.2   820.7    0.00      21    63.3
 129    5:20   60.7    23    5.2   272      9.0   820.7    0.00      27    63.3
 129    5:30   61.2    23    5.6   275      9.5   820.8    0.00      31    63.2
 129    5:40   61.2    24    5.1   276      7.5   820.9    0.00      35    63.2
 129    5:50   61.6    23    4.0   276      6.1   821.1    0.00      39    63.2
 129    6:00   61.9    24    5.5   290      8.8   821.2    0.00     131    63.2
 129    6:10   61.4    25    5.2   286      8.6   821.4    0.00     255    63.2
 129    6:20   60.9    25    5.9   285      9.5   821.5    0.00     152    63.2
 129    6:30   61.1    26    5.3   280      7.8   821.5    0.00     176    63.2
 129    6:40   62.6    25    4.6   289      8.6   821.6    0.00     153    63.1
 129    6:50   63.5    24    5.1   289      7.7   821.6    0.00     323    63.1
 129    7:00   64.6    23    4.6   298      8.0   821.7    0.00     473    63.1
 129    7:10   65.8    20    4.1   300      6.2   821.7    0.00     520    63.0
 129    7:20   66.5    20    3.6   301      8.1   821.8    0.00     557    63.0
 129    7:30   67.4    19    4.4   302      6.9   821.8    0.00     591    63.0
 129    7:40   68.8    18    1.7   311      5.6   821.9    0.00     630    63.0
 129    7:50   69.9    18    1.3   289      4.5   822.0    0.00     672    63.0
 129    8:00   71.9    17    1.2    41      6.4   822.0    0.00     697    63.1
 129    8:10   71.4    16    1.2   354      3.8   822.0    0.00     678    63.0
 129    8:20   70.7    17    2.1   330      5.9   822.0    0.00     782    63.0
 129    8:30   71.2    17    1.6    67      4.7   822.0    0.00     800    63.0
 129    8:40   72.1    16    0.9    55      4.7   822.0    0.00     833    63.0
 129    8:50   72.5    16    2.8   304      9.3   822.0    0.00     854    63.0
 129    9:00   71.4    17    3.4   299      6.7   822.1    0.00     881    63.0
 129    9:10   72.6    16    2.0   300      4.7   822.2    0.00     906    63.0
 129    9:20   72.8    16    3.4   307      8.0   822.2    0.00     931    63.0
 129    9:30   73.1    15    2.2   132      5.7   822.2    0.00     956    63.0
 129    9:40   74.5    15    1.1   352      4.5   822.1    0.00     979    63.1
 129    9:50   75.4    14    0.8   331      4.2   822.2    0.00     996    63.0
 129   10:00   76.5    14    1.0   337      5.0   822.1    0.00    1019    63.1
 129   10:10   73.9    15    4.2   333     10.7   822.0    0.00    1037    63.1
 129   10:20   73.9    15    3.7    95     13.1   821.9    0.00    1055    63.1
 129   10:30   75.2    14    3.3   305      8.1   821.9    0.00    1003    63.0
 129   10:40   74.0    15    2.4    76      9.2   821.8    0.00     977    63.1
 129   10:50   75.8    14    3.5    88     13.3   821.7    0.00    1093    63.1
 129   11:00   75.5    14    3.8   121     10.0   821.6    0.00    1082    63.1
 129   11:10   77.2    14    2.2   341      7.7   821.5    0.00    1081    63.0
 129   11:20   77.2    14    4.7   290      9.0   821.4    0.00    1106    63.1
 129   11:30   77.3    14    3.5   286      9.3   821.3    0.00    1114    63.2
 129   11:40   77.9    13    3.0   168      9.2   821.3    0.00    1122    63.3
 129   11:50   77.3    13    3.7    74      9.1   821.2    0.00    1126    63.3
 129   12:00   76.5    14    4.6    73     17.2   821.0    0.00    1114    63.3
 129   12:10   78.2    13    3.1   275     10.3   820.9    0.00    1138    63.4
 129   12:20   78.9    12    3.1    96     10.9   820.8    0.00    1161    63.5
 129   12:30   79.4    13    3.0   210      7.2   820.7    0.00    1071    63.6
 129   12:40   79.2    12    3.4   311      8.2   820.7    0.00     654    63.6
 129   12:50   78.4    12    5.2   296     10.4   820.6    0.00    1032    63.7
 129   13:00   79.3    12    7.2   287     13.3   820.6    0.00    1062    63.8
 129   13:10   79.1    12   10.4   289     20.0   820.5    0.00    1050    63.8
 129   13:20   78.6    12    8.6   269     16.4   820.5    0.00    1025    63.9
 129   13:30   79.4    12    3.7   229     11.2   820.4    0.00    1033    64.0
 129   13:40   80.1    11    6.3   291     14.2   820.4    0.00    1069    64.1
 129   13:50   79.9    11    6.8   293     16.1   820.2    0.00    1008    64.1
 129   14:00   79.9    11    6.1   298      9.8   820.2    0.00     917    64.2
 129   14:10   79.3    11    2.0   327      9.6   820.1    0.00     775    64.3
 129   14:20   80.5    11    2.8   319      8.1   819.8    0.00     981    64.3
 129   14:30   80.4    11    3.9   308     15.8   819.7    0.00     598    64.4
 129   14:40   79.7    11    8.7   271     22.1   819.7    0.00     165    64.5
 129   14:50   79.0    10    6.7   264     16.3   819.7    0.00     131    64.6
 129   15:00   79.1    11    4.2   263     12.2   819.5    0.00     147    64.7
 129   15:10   79.2    11    4.1   310      9.9   819.5    0.00     170    64.7
 129   15:20   78.8    12    3.9   302     10.9   819.4    0.00     160    64.8
 129   15:30   79.5    11    2.3   317      6.9   819.4    0.00     156    64.9
 129   15:40   78.8    12    8.3   291     18.1   819.4    0.00     113    64.9
 129   15:50   78.3    11    3.6   304      8.1   819.4    0.00     129    65.0
 129   16:00   78.7    11    5.6   290     11.8   819.4    0.00     109    65.1
 129   16:10   78.7    10    4.6   299      9.6   819.3    0.00     106    65.1
 129   16:20   78.9    10    2.0    21     11.8   819.3    0.00     125    65.2
 129   16:30   78.9    11    2.4   315      7.4   819.4    0.00     120    65.3
 129   16:40   78.9    11    6.2   297      9.8   819.4    0.00     107    65.3
 129   16:50   78.4    12    7.4   306     14.6   819.4    0.00     107    65.3
 129   17:00   77.9    12    4.3   317      9.9   819.4    0.00      91    65.4
 129   17:10   77.8    12    5.5   312     13.8   819.4    0.00      80    65.4
 129   17:20   77.6    11    5.8   302     10.5   819.5    0.00      71    65.4
 129   17:30   78.0    10    4.6   308      9.6   819.5    0.00     105    65.5
 129   17:40   78.5     9    2.6   303      9.7   819.5    0.00     160    65.5
 129   17:50   77.3     9    4.9   306      9.6   819.6    0.00     140    65.5
 129   18:00   76.7     9    4.7   303      8.2   819.7    0.00     102    65.6
 129   18:10   75.8    10    4.3   300      7.2   819.7    0.00      63    65.7
 129   18:20   74.1    11    3.9   285      6.8   819.7    0.00      27    65.8
 129   18:30   72.3    13    2.0   256      3.9   819.7    0.00      10    65.9
 129   18:40   71.2    13    2.8   260      4.9   819.8    0.00       6    65.9
 129   18:50   70.9    13    3.4   260      5.7   819.8    0.00       1    65.9
 129   19:00   71.1    13    4.8   267      7.3   819.9    0.00       0    66.0
 129   19:10   70.8    13    5.4   270      8.0   820.0    0.00       0    66.1
 129   19:20   70.4    14    5.5   270      8.2   820.1    0.00       0    66.1
 129   19:30   69.9    14    6.4   271      9.4   820.2    0.00       0    66.1
 129   19:40   69.5    14    4.9   275     10.4   820.4    0.00       0    66.1
 129   19:50   68.9    14    1.1   276      3.9   820.6    0.00       0    66.2
 129   20:00   67.8    15    1.7   275      3.1   820.8    0.00       0    66.2
 129   20:10   66.1    16    2.1   265      4.5   820.9    0.00       0    66.2
 129   20:20   65.0    16    2.1   158      5.5   821.1    0.00       0    66.2
 129   20:30   64.2    16    1.5   183      4.0   821.2    0.00       0    66.2
 129   20:40   63.3    16    3.0   192      4.7   821.2    0.00       0    66.2
 129   20:50   62.4    17    1.5   234      3.0   821.2    0.00       0    66.2
 129   21:00   62.5    16    1.2   229      3.2   821.3    0.00       0    66.2
 129   21:10   62.8    16    1.9   253      4.0   821.4    0.00       0    66.2
 129   21:20   63.5    15    2.6   260      5.1   821.4    0.00       0    66.2
 129   21:30   63.0    16    2.0   245      3.9   821.5    0.00       0    66.1
 129   21:40   63.6    16    2.5   261      5.0   821.6    0.00       0    66.1
 129   21:50   62.7    18    2.0   257      3.9   821.7    0.00       0    66.1
 129   22:00   60.2    21    1.2   244      2.6   821.7    0.00       0    66.1
 129   22:10   60.2    20    0.7   198      1.7   821.7    0.00       0    66.1
 129   22:20   60.5    20    1.2   191      2.0   821.8    0.00       0    66.1
 129   22:30   59.5    22    1.2   149      2.6   821.8    0.00       0    66.0
 129   22:40   59.6    21    1.3   154      2.3   821.9    0.00       0    66.0
 129   22:50   59.0    22    1.0   157      2.0   821.9    0.00       0    66.0
 129   23:00   58.9    22    2.0   147      3.3   822.0    0.00       0    66.0
 129   23:10   57.9    23    1.1   175      2.4   822.1    0.00       0    65.9
 129   23:20   57.6    24    1.7   158      3.9   822.1    0.00       0    65.9
 129   23:30   57.1    23    3.4   156      5.4   822.2    0.00       0    65.9
 129   23:40   56.2    28    0.9   173      2.7   822.2    0.00       0    65.9
 129   23:50   55.7    29    0.5   185      1.7   822.3    0.00       0    65.9
 130    0:00   55.7    27    1.5   271      2.8   822.3    0.00       0    65.9

Return to Pioche, Nevada graphs page.


Western Regional Climate Center,wrcc@dri.edu